Time;durP1;ratioP1;P1;durP2;ratioP2;P2;SDS_P1;SDS_P2;PMS_P1;PMS_P2;Temp;Humidity;BMP_temperature;BMP_pressure;BME280_temperature;BME280_humidity;BME280_pressure;Samples;Min_cycle;Max_cycle;Signal;HPM_P1;HPM_P2
2023/08/19 00:01:30;;;;;;;20.80;8.50;;;;;;;23.72;66.15;99693.77;78448;1298;3056346;-69
2023/08/19 00:03:57;;;;;;;14.90;9.00;;;;;;;23.76;65.79;99692.95;79664;1292;3013684;-69
2023/08/19 00:06:40;;;;;;;13.70;8.90;;;;;;;23.74;65.98;99698.55;79714;1292;3012450;-70
2023/08/19 00:09:09;;;;;;;17.00;8.70;;;;;;;23.73;66.07;99695.81;78520;1297;3053208;-69
2023/08/19 00:11:37;;;;;;;15.60;8.50;;;;;;;23.69;66.24;99697.73;79769;1292;3013936;-68
2023/08/19 00:14:04;;;;;;;16.60;9.00;;;;;;;23.59;66.99;99697.63;79756;1297;3011818;-65
2023/08/19 00:16:33;;;;;;;15.30;9.40;;;;;;;23.50;67.54;99696.38;78394;1297;3056554;-70
2023/08/19 00:18:59;;;;;;;16.80;9.00;;;;;;;23.50;67.02;99693.27;79712;1295;3011989;-68
2023/08/19 00:21:26;;;;;;;14.60;8.70;;;;;;;23.50;67.15;99690.21;79662;1293;3011872;-66
2023/08/19 00:23:56;;;;;;;10.10;8.10;;;;;;;23.45;67.69;99693.05;78403;1298;3052080;-67
2023/08/19 00:26:25;;;;;;;16.30;8.80;;;;;;;23.44;67.84;99686.05;79692;1292;3012991;-69
2023/08/19 00:28:52;;;;;;;14.90;9.00;;;;;;;23.40;68.08;99687.52;78432;1298;3068369;-66
2023/08/19 00:31:19;;;;;;;13.60;8.50;;;;;;;23.37;68.13;99683.17;79692;1292;3018365;-65
2023/08/19 00:33:46;;;;;;;13.60;9.60;;;;;;;23.33;68.40;99681.34;79645;1298;3013577;-65
2023/08/19 00:36:14;;;;;;;19.00;9.70;;;;;;;23.31;68.33;99678.50;78260;1297;3027806;-65
2023/08/19 00:38:41;;;;;;;15.80;6.80;;;;;;;23.27;68.45;99676.08;79751;1296;3013220;-66
2023/08/19 00:41:07;;;;;;;12.40;7.40;;;;;;;23.77;67.23;99673.94;79601;1298;3011561;-65
2023/08/19 00:43:37;;;;;;;15.10;7.70;;;;;;;24.23;65.34;99674.45;78344;1292;3027529;-65
2023/08/19 00:46:05;;;;;;;17.50;8.10;;;;;;;24.25;65.02;99672.25;79698;1292;3011653;-67
2023/08/19 00:48:34;;;;;;;15.30;8.60;;;;;;;24.17;65.23;99675.29;79143;1298;3011782;-63
2023/08/19 00:51:02;;;;;;;16.70;8.00;;;;;;;24.03;65.42;99676.23;79482;1298;3013803;-66
2023/08/19 00:53:29;;;;;;;18.10;8.60;;;;;;;23.90;65.52;99674.23;79539;1292;3012926;-65
2023/08/19 00:55:57;;;;;;;16.40;9.10;;;;;;;23.81;66.01;99675.64;78238;1298;3053341;-67
2023/08/19 00:58:23;;;;;;;15.50;9.30;;;;;;;23.70;66.12;99673.80;79602;1295;3015688;-67
2023/08/19 01:00:53;;;;;;;22.30;9.50;;;;;;;23.69;66.19;99672.73;79730;1292;3011908;-70
2023/08/19 01:03:21;;;;;;;15.20;9.50;;;;;;;23.65;66.16;99665.40;78503;1292;3055380;-68
2023/08/19 01:06:00;;;;;;;16.20;8.80;;;;;;;23.57;66.74;99665.55;79696;1293;3013715;-66
2023/08/19 01:08:42;;;;;;;14.20;9.00;;;;;;;23.43;67.41;99665.07;78467;1298;3050743;-66
2023/08/19 01:11:48;;;;;;;17.00;9.30;;;;;;;23.40;67.45;99665.42;78399;1298;3053546;-66
2023/08/19 01:14:31;;;;;;;14.20;9.50;;;;;;;23.39;67.44;99668.13;78695;1297;3053292;-70
2023/08/19 01:16:59;;;;;;;16.10;8.90;;;;;;;23.37;67.36;99669.84;78517;1298;3070401;-67
2023/08/19 01:19:29;;;;;;;13.10;8.80;;;;;;;23.37;67.30;99665.85;79678;1295;3012819;-66
2023/08/19 01:22:03;;;;;;;15.60;9.40;;;;;;;23.34;67.36;99670.91;78416;1297;3048399;-68
2023/08/19 01:24:37;;;;;;;20.00;10.50;;;;;;;23.31;67.37;99668.22;79713;1292;3011777;-68
2023/08/19 01:27:06;;;;;;;16.30;9.80;;;;;;;23.31;67.54;99669.59;78605;1292;3050544;-67
2023/08/19 01:29:33;;;;;;;22.60;10.10;;;;;;;23.22;68.20;99670.98;79827;1298;3013247;-69
2023/08/19 01:32:00;;;;;;;16.60;10.00;;;;;;;23.23;67.95;99670.41;79795;1297;3011632;-68
2023/08/19 01:34:27;;;;;;;15.20;9.90;;;;;;;23.21;68.17;99669.30;78430;1292;3050680;-70
2023/08/19 01:37:00;;;;;;;12.80;10.10;;;;;;;23.21;68.18;99668.92;79603;1292;3019071;-69
2023/08/19 01:39:28;;;;;;;13.90;7.10;;;;;;;23.21;68.31;99671.09;78449;1297;3054709;-68
2023/08/19 01:41:55;;;;;;;16.10;8.80;;;;;;;23.81;66.95;99671.22;79368;1298;3013224;-67
2023/08/19 01:44:22;;;;;;;14.90;9.30;;;;;;;24.34;65.29;99665.65;79534;1298;3011402;-66
2023/08/19 01:46:50;;;;;;;15.60;8.40;;;;;;;24.38;64.60;99664.15;78362;1298;3026315;-67
2023/08/19 01:49:16;;;;;;;14.90;9.30;;;;;;;24.28;64.53;99663.71;79670;1292;3019124;-68
2023/08/19 01:51:43;;;;;;;13.30;9.30;;;;;;;24.12;64.65;99663.73;79527;1292;3013507;-64
2023/08/19 01:54:11;;;;;;;20.30;9.20;;;;;;;23.95;65.03;99658.30;78389;1293;3028620;-70
2023/08/19 01:56:37;;;;;;;16.50;9.30;;;;;;;23.84;65.43;99656.46;79552;1298;3012570;-66
2023/08/19 01:59:04;;;;;;;17.90;8.80;;;;;;;23.73;65.80;99661.14;79584;1292;3012728;-67
2023/08/19 02:01:32;;;;;;;16.00;9.80;;;;;;;23.67;65.90;99662.14;78384;1297;3028863;-68
2023/08/19 02:03:58;;;;;;;14.60;9.40;;;;;;;23.59;66.03;99657.67;79593;1296;3013779;-68
2023/08/19 02:06:25;;;;;;;18.10;9.20;;;;;;;23.54;66.25;99662.22;79806;1293;3011650;-65
2023/08/19 02:08:53;;;;;;;18.70;10.50;;;;;;;23.44;66.86;99660.93;78385;1292;3052560;-64
2023/08/19 02:11:20;;;;;;;15.20;9.50;;;;;;;23.40;66.68;99661.95;79680;1292;3020507;-65
2023/08/19 02:13:47;;;;;;;14.60;9.90;;;;;;;23.36;66.82;99663.27;79585;1296;3011839;-67
2023/08/19 02:16:14;;;;;;;16.60;9.30;;;;;;;23.31;67.18;99663.48;78556;1292;3028799;-67
2023/08/19 02:18:41;;;;;;;15.30;9.40;;;;;;;23.30;67.19;99664.15;79734;1292;3013620;-66
2023/08/19 02:21:07;;;;;;;19.60;10.30;;;;;;;23.24;67.80;99666.58;79589;1297;3011792;-66
2023/08/19 02:23:35;;;;;;;15.40;10.30;;;;;;;23.23;67.53;99665.07;78259;1296;3028719;-67
2023/08/19 02:26:02;;;;;;;14.30;9.80;;;;;;;23.20;67.75;99669.54;79548;1295;3013708;-68
2023/08/19 02:28:28;;;;;;;21.30;11.20;;;;;;;23.17;67.95;99669.17;79707;1292;3011361;-68
2023/08/19 02:31:02;;;;;;;16.40;7.40;;;;;;;23.15;68.02;99667.40;78401;1298;3028292;-66
2023/08/19 02:33:29;;;;;;;12.20;8.10;;;;;;;23.69;67.13;99668.16;79626;1292;3011728;-67
2023/08/19 02:35:57;;;;;;;14.40;9.20;;;;;;;24.23;65.46;99666.38;78531;1292;3056184;-67
2023/08/19 02:38:24;;;;;;;13.00;9.80;;;;;;;24.27;64.71;99666.53;79666;1292;3013165;-67
2023/08/19 02:40:51;;;;;;;20.40;10.00;;;;;;;24.13;64.85;99666.57;79700;1293;3013064;-67
2023/08/19 02:43:18;;;;;;;19.40;10.80;;;;;;;23.99;64.99;99664.67;78469;1296;3025921;-67
2023/08/19 02:45:46;;;;;;;14.40;10.90;;;;;;;23.85;65.40;99670.15;79610;1295;3012836;-68
2023/08/19 02:48:12;;;;;;;18.30;11.60;;;;;;;23.74;65.56;99670.66;79734;1292;3012830;-70
2023/08/19 02:50:41;;;;;;;14.90;11.20;;;;;;;23.63;65.97;99668.72;78502;1297;3027935;-65
2023/08/19 02:53:08;;;;;;;17.90;11.50;;;;;;;23.47;66.65;99672.07;79831;1292;3014755;-70
2023/08/19 02:55:39;;;;;;;17.60;11.00;;;;;;;23.26;67.69;99675.82;79690;1293;3013341;-69
2023/08/19 02:58:07;;;;;;;18.60;11.80;;;;;;;23.17;67.94;99678.20;78474;1292;3052776;-67
2023/08/19 03:00:36;;;;;;;18.40;11.50;;;;;;;23.02;68.69;99674.85;79694;1292;3013594;-67
2023/08/19 03:03:05;;;;;;;18.40;11.60;;;;;;;22.94;69.21;99680.23;79781;1293;3011706;-67
2023/08/19 03:05:39;;;;;;;20.50;11.30;;;;;;;22.88;69.58;99684.43;78459;1292;3056167;-65
2023/08/19 03:08:07;;;;;;;17.70;11.60;;;;;;;22.79;69.98;99683.51;79706;1298;3011830;-68
2023/08/19 03:10:36;;;;;;;13.70;9.00;;;;;;;22.72;70.49;99686.69;78499;1297;3053336;-65
2023/08/19 03:13:06;;;;;;;16.60;9.40;;;;;;;23.24;68.97;99685.30;79823;1297;3013370;-69
2023/08/19 03:15:35;;;;;;;16.60;10.10;;;;;;;23.72;67.02;99687.90;78537;1292;3051495;-70
2023/08/19 03:18:02;;;;;;;19.20;12.00;;;;;;;23.62;67.18;99687.73;79811;1292;3013448;-69
2023/08/19 03:20:29;;;;;;;23.50;10.10;;;;;;;23.51;67.30;99687.36;79661;1292;3013048;-68
2023/08/19 03:22:57;;;;;;;15.40;10.40;;;;;;;23.23;68.31;99687.28;78461;1292;3048351;-68
2023/08/19 03:25:23;;;;;;;14.60;10.50;;;;;;;23.08;69.25;99687.44;79537;1293;3019215;-66
2023/08/19 03:27:50;;;;;;;18.10;10.90;;;;;;;22.95;69.97;99692.41;79620;1298;3011874;-69
2023/08/19 03:30:18;;;;;;;21.50;11.90;;;;;;;22.77;70.83;99690.77;78445;1293;3026741;-67
2023/08/19 03:32:44;;;;;;;23.60;11.70;;;;;;;22.64;70.84;99687.75;79805;1292;3013291;-68
2023/08/19 03:35:11;;;;;;;25.70;11.70;;;;;;;22.62;71.09;99684.23;79845;1292;3013592;-66
2023/08/19 03:37:39;;;;;;;16.60;11.60;;;;;;;22.50;71.64;99684.42;78362;1298;3026348;-65
2023/08/19 03:40:07;;;;;;;16.60;9.60;;;;;;;22.48;71.87;99686.36;79576;1298;3013136;-68
2023/08/19 03:42:33;;;;;;;19.00;10.30;;;;;;;22.91;70.50;99683.02;79695;1292;3011687;-66
2023/08/19 03:45:01;;;;;;;14.70;9.60;;;;;;;23.19;69.45;99676.94;78404;1297;3053584;-65
2023/08/19 03:47:29;;;;;;;16.30;9.50;;;;;;;23.18;69.29;99676.02;79765;1292;3015133;-65
2023/08/19 03:49:56;;;;;;;21.30;12.10;;;;;;;23.07;69.35;99678.04;79639;1298;3011639;-65
2023/08/19 03:52:25;;;;;;;19.90;10.80;;;;;;;23.04;69.61;99676.13;78172;1292;3049015;-68
2023/08/19 03:54:51;;;;;;;15.90;11.00;;;;;;;22.94;69.98;99676.61;79739;1293;3013266;-68
2023/08/19 03:57:18;;;;;;;17.20;11.90;;;;;;;22.81;70.81;99675.40;79628;1298;3011699;-63
2023/08/19 03:59:50;;;;;;;19.60;11.30;;;;;;;22.74;71.26;99675.77;78379;1298;3052695;-64
2023/08/19 04:02:17;;;;;;;;;;;;;;;22.68;71.76;99671.98;79688;1297;3012450;-67
2023/08/19 04:04:59;;;;;;;20.00;12.20;;;;;;;22.59;72.46;99673.61;78292;1298;3050885;-65
2023/08/19 04:07:27;;;;;;;19.00;9.30;;;;;;;22.60;72.63;99672.24;78256;1298;3057079;-66
2023/08/19 04:09:54;;;;;;;17.30;9.80;;;;;;;23.17;70.87;99671.52;79615;1292;3018568;-69
2023/08/19 04:12:25;;;;;;;19.30;9.70;;;;;;;23.62;68.72;99676.17;79687;1292;3011701;-65
2023/08/19 04:14:53;;;;;;;17.50;10.60;;;;;;;23.62;68.59;99675.77;78352;1298;3051021;-66
2023/08/19 04:17:20;;;;;;;16.40;11.10;;;;;;;23.50;68.88;99670.36;77746;1298;3039047;-67
2023/08/19 04:19:46;;;;;;;24.80;11.60;;;;;;;23.40;69.25;99675.71;79773;1292;3013619;-66
2023/08/19 04:22:15;;;;;;;16.10;11.50;;;;;;;23.30;69.81;99674.04;79072;1294;3011554;-67
2023/08/19 04:24:42;;;;;;;18.40;11.60;;;;;;;23.23;70.18;99671.21;79696;1292;3012800;-69
2023/08/19 04:27:08;;;;;;;15.70;11.70;;;;;;;23.20;69.81;99669.02;79509;1293;3011425;-66
2023/08/19 04:29:36;;;;;;;18.70;10.80;;;;;;;23.16;70.17;99670.85;78263;1298;3026675;-68
2023/08/19 04:32:03;;;;;;;17.00;11.80;;;;;;;23.14;70.13;99672.49;79685;1298;3018589;-69
2023/08/19 04:34:31;;;;;;;22.50;11.90;;;;;;;23.16;70.11;99675.95;79684;1298;3011651;-67
2023/08/19 04:37:01;;;;;;;11.50;7.70;;;;;;;23.18;70.42;99672.82;78472;1297;3055910;-68
2023/08/19 04:39:28;;;;;;;13.70;8.70;;;;;;;23.87;68.87;99669.90;79707;1292;3015010;-66
2023/08/19 04:42:00;;;;;;;16.30;8.80;;;;;;;24.49;66.03;99674.17;78340;1299;3049319;-68
2023/08/19 04:44:26;;;;;;;17.30;10.10;;;;;;;24.66;64.52;99676.00;79471;1296;3018670;-68
2023/08/19 04:46:53;;;;;;;17.10;10.70;;;;;;;24.68;64.81;99680.04;79782;1292;3013126;-65
2023/08/19 04:49:21;;;;;;;22.40;11.40;;;;;;;24.56;65.15;99679.92;78581;1297;3027213;-65
2023/08/19 04:51:48;;;;;;;18.50;11.50;;;;;;;24.40;65.54;99674.59;79845;1297;3012981;-65
2023/08/19 04:54:15;;;;;;;18.20;12.30;;;;;;;24.25;65.98;99681.00;79646;1292;3012265;-68
2023/08/19 04:56:43;;;;;;;16.70;12.00;;;;;;;24.20;66.15;99676.81;78367;1293;3025174;-68
2023/08/19 04:59:09;;;;;;;19.20;12.40;;;;;;;24.08;66.51;99677.20;79958;1297;3013439;-67
2023/08/19 05:01:36;;;;;;;17.40;11.60;;;;;;;24.03;66.20;99678.30;79693;1293;3012053;-69
2023/08/19 05:04:04;;;;;;;21.20;11.80;;;;;;;24.04;66.54;99680.55;78512;1297;3026094;-67
2023/08/19 05:06:31;;;;;;;26.40;12.30;;;;;;;24.01;66.16;99681.06;79569;1295;3014606;-68
2023/08/19 05:08:58;;;;;;;22.30;12.70;;;;;;;23.98;66.57;99678.23;79731;1297;3011654;-65
2023/08/19 05:11:26;;;;;;;19.70;11.10;;;;;;;24.04;66.84;99680.18;78394;1292;3048800;-65
2023/08/19 05:13:56;;;;;;;18.20;11.30;;;;;;;24.08;66.93;99682.20;79920;1295;3012754;-69
2023/08/19 05:16:25;;;;;;;15.90;12.00;;;;;;;24.15;66.59;99683.21;79271;1296;3011981;-65
2023/08/19 05:19:06;;;;;;;19.60;10.90;;;;;;;24.21;65.93;99680.52;79527;1293;3014852;-66
2023/08/19 05:21:34;;;;;;;22.60;10.70;;;;;;;24.26;65.45;99685.49;78482;1292;3057457;-66
2023/08/19 05:24:01;;;;;;;18.30;11.90;;;;;;;24.27;65.29;99684.92;79427;1292;3012798;-65
2023/08/19 05:26:27;;;;;;;14.70;11.40;;;;;;;24.30;65.23;99687.08;79693;1293;3011517;-66
2023/08/19 05:28:55;;;;;;;16.40;10.40;;;;;;;24.39;64.76;99682.43;78280;1297;3028863;-63
2023/08/19 05:31:22;;;;;;;20.10;11.20;;;;;;;24.49;64.32;99690.29;79756;1292;3012877;-65
2023/08/19 05:33:48;;;;;;;21.40;11.40;;;;;;;24.51;64.60;99692.90;79498;1298;3013028;-64
2023/08/19 05:36:16;;;;;;;17.10;10.70;;;;;;;24.58;64.30;99692.63;78307;1298;3025114;-65
2023/08/19 05:38:43;;;;;;;18.70;11.30;;;;;;;24.59;64.21;99690.68;79779;1293;3011594;-63
2023/08/19 05:41:09;;;;;;;22.10;10.90;;;;;;;24.65;63.61;99690.11;79709;1292;3012064;-64
2023/08/19 05:43:37;;;;;;;20.70;11.10;;;;;;;24.69;63.27;99691.73;78452;1298;3027951;-64
2023/08/19 05:46:05;;;;;;;19.50;10.60;;;;;;;24.77;63.43;99690.09;79740;1292;3013126;-64
2023/08/19 05:48:31;;;;;;;19.50;11.30;;;;;;;24.88;62.85;99688.85;79738;1293;3011591;-64
2023/08/19 05:51:00;;;;;;;19.80;11.30;;;;;;;24.96;62.42;99692.75;78367;1292;3056733;-66
2023/08/19 05:53:27;;;;;;;19.90;10.70;;;;;;;24.94;62.61;99692.80;79726;1294;3014659;-68
2023/08/19 05:55:53;;;;;;;19.40;10.70;;;;;;;25.07;62.55;99695.58;79663;1294;3011915;-64
2023/08/19 05:58:21;;;;;;;17.90;10.90;;;;;;;25.13;62.19;99693.19;78425;1292;3052756;-63
2023/08/19 06:00:48;;;;;;;20.50;10.90;;;;;;;25.16;61.85;99693.23;79699;1298;3018700;-64
2023/08/19 06:03:15;;;;;;;27.30;11.30;;;;;;;25.23;61.67;99694.61;79734;1298;3011591;-64
2023/08/19 06:05:43;;;;;;;19.10;11.20;;;;;;;25.26;61.56;99697.17;78589;1293;3026043;-64
2023/08/19 06:08:12;;;;;;;20.00;11.50;;;;;;;25.32;61.63;99695.08;79932;1298;3012690;-65
2023/08/19 06:10:43;;;;;;;20.60;10.90;;;;;;;25.45;61.36;99697.51;79715;1298;3013163;-63
2023/08/19 06:13:11;;;;;;;20.30;12.00;;;;;;;25.51;61.31;99695.20;78340;1297;3052006;-66
2023/08/19 06:15:39;;;;;;;28.80;11.50;;;;;;;25.55;61.24;99697.94;79764;1295;3013316;-65
2023/08/19 06:18:06;;;;;;;30.30;11.70;;;;;;;25.64;61.02;99699.93;79741;1295;3011693;-63
2023/08/19 06:20:34;;;;;;;25.40;12.30;;;;;;;25.75;60.80;99701.58;78402;1292;3055398;-65
2023/08/19 06:23:00;;;;;;;16.50;10.70;;;;;;;25.89;60.22;99697.27;79959;1292;3020549;-65
2023/08/19 06:25:27;;;;;;;23.10;11.60;;;;;;;25.96;59.40;99700.84;79561;1293;3011457;-64
2023/08/19 06:27:54;;;;;;;22.20;11.90;;;;;;;26.05;58.90;99702.35;78419;1298;3026784;-66
2023/08/19 06:30:21;;;;;;;20.50;11.50;;;;;;;26.11;58.76;99702.17;79732;1298;3013169;-64
2023/08/19 06:32:48;;;;;;;22.50;13.40;;;;;;;26.13;58.84;99703.15;79678;1298;3013151;-67
2023/08/19 06:35:17;;;;;;;24.90;12.40;;;;;;;26.21;59.07;99701.30;78450;1292;3026366;-64
2023/08/19 06:37:47;;;;;;;25.30;11.60;;;;;;;26.27;58.55;99700.30;79646;1293;3013304;-63
2023/08/19 06:40:17;;;;;;;26.40;11.40;;;;;;;26.34;58.63;99703.10;78627;1296;3048420;-65
2023/08/19 06:42:43;;;;;;;20.10;10.00;;;;;;;26.45;58.29;99704.55;79647;1297;3011567;-65
2023/08/19 06:45:10;;;;;;;27.10;11.00;;;;;;;26.43;58.25;99705.45;79337;1299;3011741;-67
2023/08/19 06:47:38;;;;;;;18.80;10.30;;;;;;;26.49;58.60;99705.75;78462;1295;3051713;-64
2023/08/19 06:50:06;;;;;;;19.00;10.40;;;;;;;26.62;57.77;99710.23;79734;1296;3014804;-64
2023/08/19 06:52:33;;;;;;;14.60;9.80;;;;;;;26.74;57.28;99703.17;79704;1292;3011652;-66
2023/08/19 06:55:01;;;;;;;20.00;10.40;;;;;;;26.80;56.67;99710.96;78479;1295;3049003;-67
2023/08/19 06:57:29;;;;;;;17.00;10.60;;;;;;;26.83;56.61;99711.84;79555;1295;3012939;-64
2023/08/19 07:00:03;;;;;;;17.50;10.10;;;;;;;26.96;56.33;99714.42;79606;1293;3011635;-69
2023/08/19 07:02:37;;;;;;;18.10;11.10;;;;;;;26.95;55.69;99711.15;78408;1298;3052269;-68
2023/08/19 07:05:05;;;;;;;25.20;10.60;;;;;;;26.99;55.50;99708.31;79732;1298;3012830;-66
2023/08/19 07:07:33;;;;;;;18.70;9.90;;;;;;;27.08;55.47;99709.70;78250;1296;3048897;-65
2023/08/19 07:10:00;;;;;;;23.50;10.90;;;;;;;27.13;55.39;99706.40;79362;1298;3013800;-65
2023/08/19 07:12:27;;;;;;;24.50;10.30;;;;;;;27.21;55.45;99712.64;79881;1292;3011342;-65
2023/08/19 07:14:56;;;;;;;19.90;9.70;;;;;;;27.28;54.70;99710.36;78425;1295;3026515;-65
2023/08/19 07:17:22;;;;;;;21.50;9.60;;;;;;;27.31;55.26;99708.94;79984;1295;3012760;-63
2023/08/19 07:19:50;;;;;;;19.40;11.00;;;;;;;27.41;55.24;99709.63;79480;1293;3011600;-64
2023/08/19 07:22:17;;;;;;;22.10;10.50;;;;;;;27.52;54.42;99708.99;78350;1298;3048322;-65
2023/08/19 07:24:44;;;;;;;21.00;9.40;;;;;;;27.60;53.93;99709.23;79473;1301;3011848;-65
2023/08/19 07:27:11;;;;;;;19.50;9.20;;;;;;;27.62;53.78;99711.62;79512;1298;3011583;-68
2023/08/19 07:29:39;;;;;;;15.70;9.10;;;;;;;27.74;53.77;99707.58;78323;1298;3027573;-65
2023/08/19 07:32:06;;;;;;;18.60;8.70;;;;;;;27.82;53.42;99710.55;79286;1301;3013415;-65
2023/08/19 07:34:32;;;;;;;18.20;8.20;;;;;;;27.94;53.27;99714.55;79662;1295;3011601;-68
2023/08/19 07:37:00;;;;;;;22.90;8.40;;;;;;;28.05;52.32;99716.83;78378;1292;3026018;-64
2023/08/19 07:39:27;;;;;;;17.70;7.50;;;;;;;28.16;51.54;99716.63;79702;1293;3014795;-67
2023/08/19 07:41:54;;;;;;;14.20;7.40;;;;;;;28.23;51.78;99712.63;79489;1298;3011500;-67
2023/08/19 07:44:22;;;;;;;16.00;7.70;;;;;;;28.35;52.03;99710.54;78499;1298;3052141;-66
2023/08/19 07:46:48;;;;;;;15.90;7.90;;;;;;;28.40;51.72;99716.50;79855;1297;3012853;-67
2023/08/19 07:49:15;;;;;;;13.20;8.00;;;;;;;28.49;52.10;99713.73;79518;1298;3011702;-65
2023/08/19 07:51:42;;;;;;;14.70;7.40;;;;;;;28.56;51.69;99713.84;78526;1298;3027102;-64
2023/08/19 07:54:09;;;;;;;14.10;7.00;;;;;;;28.60;51.11;99718.25;79755;1297;3012991;-66
2023/08/19 07:56:35;;;;;;;12.40;7.50;;;;;;;28.72;51.67;99716.01;79487;1298;3013127;-68
2023/08/19 07:59:03;;;;;;;23.60;7.10;;;;;;;28.88;51.62;99713.16;78541;1297;3026653;-62
2023/08/19 08:01:30;;;;;;;21.60;8.00;;;;;;;28.97;50.31;99714.75;79795;1295;3013759;-67
2023/08/19 08:03:56;;;;;;;16.60;7.50;;;;;;;29.03;50.34;99712.29;79529;1297;3011626;-65
2023/08/19 08:06:24;;;;;;;17.40;7.20;;;;;;;29.02;50.16;99716.98;78415;1298;3026470;-67
2023/08/19 08:08:51;;;;;;;16.70;7.00;;;;;;;29.03;50.04;99715.15;79489;1297;3013569;-64
2023/08/19 08:11:17;;;;;;;17.80;7.20;;;;;;;29.08;50.27;99716.81;79696;1298;3011818;-66
2023/08/19 08:13:45;;;;;;;18.60;7.30;;;;;;;29.12;50.26;99718.86;78511;1298;3026617;-65
2023/08/19 08:16:12;;;;;;;13.80;7.60;;;;;;;29.32;50.16;99715.50;79570;1296;3015193;-66
2023/08/19 08:18:38;;;;;;;17.30;7.30;;;;;;;29.47;49.73;99717.02;79657;1297;3011630;-64
2023/08/19 08:21:06;;;;;;;22.20;6.90;;;;;;;29.59;49.20;99716.84;78321;1298;3026380;-64
2023/08/19 08:23:33;;;;;;;12.50;6.30;;;;;;;29.71;48.74;99715.18;79572;1298;3013230;-64
2023/08/19 08:25:59;;;;;;;15.30;7.10;;;;;;;29.78;48.66;99717.19;79695;1298;3011462;-65
2023/08/19 08:28:27;;;;;;;12.00;6.70;;;;;;;29.78;48.37;99717.61;78281;1297;3028735;-63
2023/08/19 08:30:54;;;;;;;16.10;6.80;;;;;;;29.78;48.34;99713.86;79624;1293;3013544;-66
2023/08/19 08:33:20;;;;;;;15.50;5.90;;;;;;;29.84;48.57;99713.27;79738;1298;3011419;-66
2023/08/19 08:35:48;;;;;;;18.20;6.80;;;;;;;29.81;47.30;99713.61;78316;1297;3029861;-64
2023/08/19 08:38:15;;;;;;;14.20;5.70;;;;;;;29.93;47.27;99711.02;79622;1292;3013195;-64
2023/08/19 08:40:41;;;;;;;11.80;6.20;;;;;;;30.11;47.34;99709.11;79512;1299;3013576;-67
2023/08/19 08:43:09;;;;;;;13.00;5.80;;;;;;;30.18;46.37;99706.86;78316;1297;3027970;-67
2023/08/19 08:45:36;;;;;;;16.80;5.50;;;;;;;30.24;46.34;99704.96;79692;1293;3013489;-66
2023/08/19 08:48:02;;;;;;;14.20;5.60;;;;;;;30.27;45.95;99706.73;79634;1298;3011901;-69
2023/08/19 08:50:30;;;;;;;18.20;6.30;;;;;;;30.42;45.71;99702.45;78422;1298;3026459;-67
2023/08/19 08:52:57;;;;;;;13.20;5.80;;;;;;;30.55;45.59;99705.13;79707;1299;3013400;-67
2023/08/19 08:55:24;;;;;;;17.70;5.70;;;;;;;30.68;45.61;99703.52;79627;1298;3011854;-68
2023/08/19 08:57:51;;;;;;;13.40;5.70;;;;;;;30.86;45.46;99698.14;78547;1297;3026535;-65
2023/08/19 09:00:18;;;;;;;14.60;5.40;;;;;;;31.02;44.11;99700.48;79703;1296;3019335;-69
2023/08/19 09:02:45;;;;;;;18.30;5.50;;;;;;;31.07;43.53;99696.77;79697;1293;3011937;-68
2023/08/19 09:05:13;;;;;;;13.20;5.10;;;;;;;31.06;43.21;99702.67;78481;1298;3026703;-67
2023/08/19 09:07:40;;;;;;;15.30;5.40;;;;;;;31.22;43.11;99700.17;79650;1301;3013770;-66
2023/08/19 09:10:12;;;;;;;10.30;4.90;;;;;;;31.39;42.71;99700.38;79682;1298;3011804;-66
2023/08/19 09:12:46;;;;;;;13.10;4.90;;;;;;;31.49;42.25;99703.66;78370;1298;3053264;-65
2023/08/19 09:15:13;;;;;;;11.80;4.50;;;;;;;31.65;41.83;99703.34;79494;1293;3011521;-63
2023/08/19 09:17:42;;;;;;;9.80;5.50;;;;;;;31.80;41.65;99708.79;78125;1301;3051722;-67
2023/08/19 09:20:09;;;;;;;11.80;5.30;;;;;;;31.94;40.94;99709.86;79729;1298;3013339;-63
2023/08/19 09:22:38;;;;;;;15.60;5.20;;;;;;;32.06;40.84;99706.13;79653;1292;3013460;-66
2023/08/19 09:25:06;;;;;;;9.40;5.60;;;;;;;32.16;40.06;99709.56;78398;1299;3042255;-69
2023/08/19 09:27:33;;;;;;;16.10;5.60;;;;;;;32.20;39.64;99707.55;79757;1298;3013549;-65
2023/08/19 09:30:00;;;;;;;16.80;5.10;;;;;;;32.36;39.54;99706.30;79626;1298;3013268;-65
2023/08/19 09:32:32;;;;;;;10.80;5.60;;;;;;;32.49;39.82;99703.66;78456;1295;3051618;-66
2023/08/19 09:35:17;;;;;;;10.60;4.30;;;;;;;32.65;38.66;99705.20;79656;1298;3011652;-64
2023/08/19 09:37:44;;;;;;;9.40;3.60;;;;;;;32.79;37.36;99703.46;78343;1297;3050058;-65
2023/08/19 09:40:12;;;;;;;7.90;4.00;;;;;;;32.91;36.77;99702.22;79594;1298;3013256;-66
2023/08/19 09:42:40;;;;;;;14.50;4.20;;;;;;;33.01;35.84;99705.91;79688;1293;3011917;-67
2023/08/19 09:45:11;;;;;;;12.60;3.90;;;;;;;33.12;36.98;99701.16;78320;1297;3052801;-65
2023/08/19 09:47:48;;;;;;;9.60;3.70;;;;;;;33.20;35.33;99698.80;79485;1300;3012788;-66
2023/08/19 09:50:17;;;;;;;11.60;4.40;;;;;;;33.28;35.53;99699.59;78500;1298;3042616;-68
2023/08/19 09:52:58;;;;;;;16.00;4.70;;;;;;;33.39;35.32;99698.65;79615;1298;3013620;-65
2023/08/19 09:55:28;;;;;;;7.70;4.00;;;;;;;33.51;35.06;99696.17;78540;1296;3053547;-67
2023/08/19 09:57:54;;;;;;;11.10;3.80;;;;;;;33.60;35.10;99693.77;79565;1298;3013804;-66
2023/08/19 10:00:21;;;;;;;6.40;3.50;;;;;;;33.71;34.79;99693.44;79511;1299;3011928;-69
2023/08/19 10:02:49;;;;;;;9.90;3.80;;;;;;;33.83;34.19;99691.77;78375;1298;3068699;-65
2023/08/19 10:05:16;;;;;;;7.50;3.40;;;;;;;33.89;34.14;99689.11;79618;1298;3013094;-66
2023/08/19 10:07:50;;;;;;;12.30;3.60;;;;;;;34.00;33.87;99687.35;79704;1299;3011852;-66
2023/08/19 10:10:17;;;;;;;4.90;3.20;;;;;;;33.98;33.88;99687.92;78463;1298;3052656;-65
2023/08/19 10:12:45;;;;;;;9.20;3.40;;;;;;;34.00;33.94;99683.81;79426;1298;3014706;-65
2023/08/19 10:15:13;;;;;;;8.40;3.70;;;;;;;34.02;34.03;99684.67;79373;1301;3011797;-64
2023/08/19 10:17:47;;;;;;;9.80;3.30;;;;;;;34.12;33.83;99684.27;78428;1298;3060086;-65
2023/08/19 10:20:17;;;;;;;9.80;3.80;;;;;;;34.18;33.54;99682.25;79706;1293;3013346;-63
2023/08/19 10:22:47;;;;;;;7.30;3.60;;;;;;;34.29;33.25;99682.90;78284;1293;3056599;-66
2023/08/19 10:25:13;;;;;;;10.00;3.40;;;;;;;34.33;32.24;99682.05;79583;1293;3012807;-66
2023/08/19 10:27:41;;;;;;;7.80;3.10;;;;;;;34.43;32.57;99684.21;79576;1294;3013365;-64
2023/08/19 10:30:31;;;;;;;9.10;3.40;;;;;;;34.57;32.06;99678.88;78399;1298;3052497;-64
2023/08/19 10:33:22;;;;;;;7.00;3.20;;;;;;;34.70;32.04;99677.69;78530;1298;3053541;-65
2023/08/19 10:36:04;;;;;;;9.20;3.70;;;;;;;34.81;31.45;99675.48;78431;1298;3060202;-64
2023/08/19 10:38:44;;;;;;;;;;;;;;;34.84;31.59;99676.23;78381;1298;3042793;-66
2023/08/19 10:41:16;;;;;;;8.10;3.00;;;;;;;34.84;30.71;99672.04;78480;1297;3057006;-67
2023/08/19 10:44:02;;;;;;;9.60;3.10;;;;;;;34.84;30.61;99674.05;79565;1293;3011600;-64
2023/08/19 10:46:37;;;;;;;4.50;2.90;;;;;;;34.87;30.86;99672.90;78587;1302;3054279;-67
2023/08/19 10:49:08;;;;;;;5.00;3.20;;;;;;;35.06;30.35;99665.45;79017;1298;3011864;-62
2023/08/19 10:52:00;;;;;;;13.00;3.60;;;;;;;35.16;30.31;99663.84;79617;1296;3013355;-62
2023/08/19 10:54:34;;;;;;;6.90;3.30;;;;;;;35.27;30.46;99662.69;78245;1298;3052585;-64
2023/08/19 10:57:14;;;;;;;6.00;3.20;;;;;;;35.38;30.32;99659.42;79012;1292;3013697;-64
2023/08/19 10:59:44;;;;;;;8.30;2.90;;;;;;;35.47;29.87;99663.30;78348;1299;3053494;-63
2023/08/19 11:02:11;;;;;;;11.00;2.80;;;;;;;35.52;29.70;99661.30;79654;1297;3012906;-64
2023/08/19 11:04:43;;;;;;;7.20;3.10;;;;;;;35.64;29.13;99665.16;79644;1292;3011627;-63
2023/08/19 11:07:11;;;;;;;14.30;3.30;;;;;;;35.71;29.36;99663.39;78309;1298;3049820;-64
2023/08/19 11:09:42;;;;;;;7.30;3.50;;;;;;;35.77;29.57;99659.91;79744;1299;3012979;-61
2023/08/19 11:12:11;;;;;;;7.10;3.40;;;;;;;35.79;29.51;99659.31;78299;1298;3053124;-61
2023/08/19 11:14:38;;;;;;;13.60;3.40;;;;;;;35.80;29.75;99658.36;79577;1298;3013057;-62